createdAt,value
2023-03-13T00:00:54.418Z,998.34
2023-03-13T00:01:54.439Z,998.40
2023-03-13T00:02:54.382Z,998.36
2023-03-13T00:03:54.341Z,998.39
2023-03-13T00:04:54.339Z,998.39
2023-03-13T00:05:54.284Z,998.39
2023-03-13T00:06:54.272Z,998.36
2023-03-13T00:07:54.249Z,998.38
2023-03-13T00:08:54.209Z,998.36
2023-03-13T00:09:54.181Z,998.31
2023-03-13T00:10:54.159Z,998.34
2023-03-13T00:11:54.127Z,998.32
2023-03-13T00:12:54.129Z,998.31
2023-03-13T00:13:54.076Z,998.28
2023-03-13T00:14:54.054Z,998.27
2023-03-13T00:15:54.024Z,998.15
2023-03-13T00:16:54.071Z,998.21
2023-03-13T00:17:53.978Z,998.25
2023-03-13T00:18:53.956Z,998.18
2023-03-13T00:19:53.925Z,998.17
2023-03-13T00:20:53.897Z,998.13
2023-03-13T00:21:53.877Z,998.15
2023-03-13T00:22:53.851Z,998.13
2023-03-13T00:23:53.821Z,998.10
2023-03-13T00:24:53.802Z,998.09
2023-03-13T00:25:53.772Z,998.12
2023-03-13T00:26:53.752Z,998.02
2023-03-13T00:27:53.721Z,997.96
2023-03-13T00:28:53.720Z,998.02
2023-03-13T00:29:53.674Z,997.94
2023-03-13T00:30:53.730Z,997.91
2023-03-13T00:31:53.680Z,997.91
2023-03-13T00:32:53.678Z,997.88
2023-03-13T00:33:53.613Z,997.85
2023-03-13T00:34:53.548Z,997.83
2023-03-13T00:35:53.558Z,997.82
2023-03-13T00:36:53.502Z,997.85
2023-03-13T00:37:53.467Z,997.83
2023-03-13T00:38:53.448Z,997.79
2023-03-13T00:39:53.420Z,997.77
2023-03-13T00:40:53.392Z,997.74
2023-03-13T00:41:53.366Z,997.77
2023-03-13T00:42:53.343Z,997.72
2023-03-13T00:43:53.314Z,997.77
2023-03-13T00:44:53.310Z,997.71
2023-03-13T00:45:53.333Z,997.74
2023-03-13T00:46:53.239Z,997.67
2023-03-13T00:47:53.212Z,997.65
2023-03-13T00:48:53.204Z,997.70
2023-03-13T00:49:53.162Z,997.66
2023-03-13T00:50:53.139Z,997.63
2023-03-13T00:51:53.110Z,997.59
2023-03-13T00:52:53.084Z,997.61
2023-03-13T00:53:53.059Z,997.54
2023-03-13T00:54:53.061Z,997.48
2023-03-13T00:55:53.019Z,997.49
2023-03-13T00:56:52.985Z,997.44
2023-03-13T00:57:52.964Z,997.39
2023-03-13T00:58:52.936Z,997.37
2023-03-13T00:59:52.915Z,997.36
2023-03-13T01:00:52.930Z,997.35
2023-03-13T01:01:52.859Z,997.32
2023-03-13T01:02:53.034Z,997.30
2023-03-13T01:03:52.814Z,997.26
2023-03-13T01:04:52.782Z,997.27
2023-03-13T01:05:52.755Z,997.28
2023-03-13T01:06:52.743Z,997.26
2023-03-13T01:07:52.712Z,997.20
2023-03-13T01:08:52.690Z,997.22
2023-03-13T01:09:52.660Z,997.19
2023-03-13T01:10:52.636Z,997.17
2023-03-13T01:11:52.616Z,997.17
2023-03-13T01:12:52.585Z,997.14
2023-03-13T01:13:52.563Z,997.16
2023-03-13T01:14:52.539Z,997.10
2023-03-13T01:15:52.567Z,997.04
2023-03-13T01:16:52.600Z,997.02
2023-03-13T01:17:52.455Z,997.01
2023-03-13T01:18:52.462Z,996.97
2023-03-13T01:19:52.417Z,996.96
2023-03-13T01:20:52.383Z,996.94
2023-03-13T01:21:52.357Z,996.90
2023-03-13T01:22:52.345Z,996.91
2023-03-13T01:23:52.321Z,996.86
2023-03-13T01:24:52.278Z,996.83
2023-03-13T01:25:52.253Z,996.80
2023-03-13T01:26:52.229Z,996.75
2023-03-13T01:27:52.221Z,996.70
2023-03-13T01:28:52.178Z,996.72
2023-03-13T01:29:52.156Z,996.63
2023-03-13T01:30:52.252Z,996.66
2023-03-13T01:31:52.103Z,996.62
2023-03-13T01:32:52.188Z,996.61
2023-03-13T01:33:52.119Z,996.53
2023-03-13T01:34:52.027Z,996.49
2023-03-13T01:35:52.092Z,996.51
2023-03-13T01:36:51.980Z,996.48
2023-03-13T01:37:51.954Z,996.45
2023-03-13T01:38:51.922Z,996.47
2023-03-13T01:39:51.901Z,996.46
2023-03-13T01:40:51.876Z,996.46
2023-03-13T01:41:51.857Z,996.45
2023-03-13T01:42:51.838Z,996.45
2023-03-13T01:43:51.811Z,996.41
2023-03-13T01:44:51.791Z,996.36
2023-03-13T01:45:51.751Z,996.35
2023-03-13T01:46:51.827Z,996.34
2023-03-13T01:47:51.698Z,996.29
2023-03-13T01:48:51.692Z,996.24
2023-03-13T01:49:51.644Z,996.24
2023-03-13T01:50:51.618Z,996.22
2023-03-13T01:51:51.597Z,996.22
2023-03-13T01:52:51.568Z,996.13
2023-03-13T01:53:51.542Z,996.13
2023-03-13T01:54:51.533Z,996.04
2023-03-13T01:55:51.489Z,996.00
2023-03-13T01:56:51.464Z,995.99
2023-03-13T01:57:51.442Z,995.96
2023-03-13T01:58:51.416Z,995.91
2023-03-13T01:59:51.398Z,995.90
2023-03-13T02:00:51.369Z,995.80
2023-03-13T02:01:51.379Z,995.81
2023-03-13T02:02:51.453Z,995.69
2023-03-13T02:03:51.289Z,995.68
2023-03-13T02:04:51.286Z,995.61
2023-03-13T02:05:51.249Z,995.60
2023-03-13T02:06:51.223Z,995.55
2023-03-13T02:07:51.195Z,995.53
2023-03-13T02:08:51.165Z,995.55
2023-03-13T02:09:51.231Z,995.55
2023-03-13T02:10:51.107Z,995.55
2023-03-13T02:11:51.086Z,995.54
2023-03-13T02:12:51.054Z,995.47
2023-03-13T02:13:51.032Z,995.41
2023-03-13T02:14:51.002Z,995.39
2023-03-13T02:15:51.021Z,995.37
2023-03-13T02:16:50.956Z,995.32
2023-03-13T02:17:50.933Z,995.27
2023-03-13T02:18:50.900Z,995.26
2023-03-13T02:19:50.881Z,995.23
2023-03-13T02:20:50.874Z,995.18
2023-03-13T02:21:50.831Z,995.21
2023-03-13T02:22:50.805Z,995.14
2023-03-13T02:23:50.777Z,995.18
2023-03-13T02:24:50.754Z,995.14
2023-03-13T02:25:50.722Z,995.08
2023-03-13T02:26:50.702Z,995.04
2023-03-13T02:27:50.675Z,994.99
2023-03-13T02:28:50.648Z,994.98
2023-03-13T02:29:50.622Z,995.01
2023-03-13T02:30:50.591Z,994.99
2023-03-13T02:31:50.587Z,994.92
2023-03-13T02:32:50.586Z,994.92
2023-03-13T02:33:50.515Z,994.87
2023-03-13T02:34:50.488Z,994.86
2023-03-13T02:35:50.525Z,994.77
2023-03-13T02:36:50.554Z,994.71
2023-03-13T02:37:50.410Z,994.68
2023-03-13T02:38:50.387Z,994.70
2023-03-13T02:39:50.364Z,994.63
2023-03-13T02:40:50.335Z,994.59
2023-03-13T02:41:50.321Z,994.61
2023-03-13T02:42:50.288Z,994.57
2023-03-13T02:43:50.264Z,994.57
2023-03-13T02:44:50.236Z,994.58
2023-03-13T02:45:50.208Z,994.54
2023-03-13T02:46:50.349Z,994.46
2023-03-13T02:47:50.164Z,994.48
2023-03-13T02:48:50.134Z,994.41
2023-03-13T02:49:50.114Z,994.38
2023-03-13T02:50:50.080Z,994.36
2023-03-13T02:51:50.063Z,994.40
2023-03-13T02:52:50.069Z,994.37
2023-03-13T02:53:50.006Z,994.38
2023-03-13T02:54:49.982Z,994.40
2023-03-13T02:55:49.960Z,994.28
2023-03-13T02:56:49.933Z,994.28
2023-03-13T02:57:49.907Z,994.29
2023-03-13T02:58:50.714Z,994.24
2023-03-13T02:59:49.858Z,994.25
2023-03-13T03:00:49.870Z,994.26
2023-03-13T03:01:49.805Z,994.19
2023-03-13T03:02:49.775Z,994.27
2023-03-13T03:03:49.870Z,994.26
2023-03-13T03:04:49.723Z,994.21
2023-03-13T03:05:49.703Z,994.20
2023-03-13T03:06:49.674Z,994.15
2023-03-13T03:07:49.650Z,994.17
2023-03-13T03:08:49.649Z,994.14
2023-03-13T03:09:49.597Z,994.15
2023-03-13T03:10:49.577Z,994.18
2023-03-13T03:11:49.561Z,994.12
2023-03-13T03:12:49.530Z,994.15
2023-03-13T03:13:49.504Z,994.06
2023-03-13T03:14:49.471Z,994.05
2023-03-13T03:15:49.445Z,994.04
2023-03-13T03:16:49.464Z,993.98
2023-03-13T03:17:49.399Z,994.03
2023-03-13T03:18:49.373Z,994.00
2023-03-13T03:19:49.347Z,994.00
2023-03-13T03:20:49.319Z,993.88
2023-03-13T03:21:49.289Z,994.00
2023-03-13T03:22:49.270Z,993.95
2023-03-13T03:23:49.238Z,993.88
2023-03-13T03:24:49.231Z,993.91
2023-03-13T03:25:49.184Z,993.91
2023-03-13T03:26:49.156Z,993.88
2023-03-13T03:27:49.137Z,993.88
2023-03-13T03:28:49.101Z,993.86
2023-03-13T03:29:49.075Z,993.84
2023-03-13T03:30:49.056Z,993.85
2023-03-13T03:31:49.215Z,993.83
2023-03-13T03:32:49.150Z,993.77
2023-03-13T03:33:48.984Z,993.76
2023-03-13T03:34:48.952Z,993.76
2023-03-13T03:35:48.969Z,993.69
2023-03-13T03:36:48.898Z,993.74
2023-03-13T03:37:48.871Z,993.71
2023-03-13T03:38:48.841Z,993.57
2023-03-13T03:39:48.827Z,993.63
2023-03-13T03:40:48.826Z,993.62
2023-03-13T03:41:48.799Z,993.59
2023-03-13T03:42:48.762Z,993.60
2023-03-13T03:43:48.712Z,993.49
2023-03-13T03:44:48.693Z,993.48
2023-03-13T03:45:48.722Z,993.39
2023-03-13T03:46:48.744Z,993.27
2023-03-13T03:47:48.616Z,993.25
2023-03-13T03:48:48.586Z,993.36
2023-03-13T03:49:48.567Z,993.33
2023-03-13T03:50:48.531Z,993.42
2023-03-13T03:51:48.524Z,993.35
2023-03-13T03:52:48.480Z,993.32
2023-03-13T03:53:48.473Z,993.34
2023-03-13T03:54:48.434Z,993.43
2023-03-13T03:55:48.409Z,993.37
2023-03-13T03:56:48.406Z,993.36
2023-03-13T03:57:48.363Z,993.33
2023-03-13T03:58:48.340Z,993.31
2023-03-13T03:59:48.310Z,993.31
2023-03-13T04:00:48.283Z,993.35
2023-03-13T04:01:48.287Z,993.33
2023-03-13T04:02:48.231Z,993.27
2023-03-13T04:03:48.366Z,993.31
2023-03-13T04:04:48.178Z,993.29
2023-03-13T04:05:48.162Z,993.29
2023-03-13T04:06:48.125Z,993.30
2023-03-13T04:07:48.106Z,993.32
2023-03-13T04:08:48.081Z,993.33
2023-03-13T04:09:48.056Z,993.27
2023-03-13T04:10:48.033Z,993.23
2023-03-13T04:11:48.015Z,993.31
2023-03-13T04:12:48.006Z,993.27
2023-03-13T04:13:47.975Z,993.30
2023-03-13T04:14:47.926Z,993.33
2023-03-13T04:15:47.905Z,993.30
2023-03-13T04:16:47.961Z,993.32
2023-03-13T04:17:47.870Z,993.29
2023-03-13T04:18:47.826Z,993.15
2023-03-13T04:19:47.803Z,993.23
2023-03-13T04:20:47.770Z,993.28
2023-03-13T04:21:47.750Z,993.22
2023-03-13T04:22:47.716Z,993.22
2023-03-13T04:23:47.701Z,993.24
2023-03-13T04:24:47.685Z,993.21
2023-03-13T04:25:47.647Z,993.22
2023-03-13T04:26:47.627Z,993.21
2023-03-13T04:27:47.594Z,993.20
2023-03-13T04:28:47.600Z,993.15
2023-03-13T04:29:47.547Z,993.21
2023-03-13T04:30:47.560Z,993.16
2023-03-13T04:31:47.492Z,993.14
2023-03-13T04:32:47.513Z,993.17
2023-03-13T04:33:47.442Z,993.12
2023-03-13T04:34:47.426Z,993.17
2023-03-13T04:35:47.585Z,993.05
2023-03-13T04:36:47.364Z,993.03
2023-03-13T04:37:47.342Z,993.05
2023-03-13T04:38:47.314Z,992.98
2023-03-13T04:39:47.318Z,993.03
2023-03-13T04:40:47.266Z,993.00
2023-03-13T04:41:47.244Z,992.97
2023-03-13T04:42:47.214Z,992.98
2023-03-13T04:43:47.189Z,992.97
2023-03-13T04:44:47.186Z,992.99
2023-03-13T04:45:47.151Z,992.95
2023-03-13T04:46:47.115Z,992.91
2023-03-13T04:47:47.092Z,992.85
2023-03-13T04:48:47.069Z,992.93
2023-03-13T04:49:47.047Z,992.90
2023-03-13T04:50:47.002Z,992.99
2023-03-13T04:51:46.985Z,992.95
2023-03-13T04:52:49.485Z,992.88
2023-03-13T04:53:46.933Z,992.94
2023-03-13T04:54:46.907Z,992.94
2023-03-13T04:55:46.885Z,992.94
2023-03-13T04:56:46.853Z,992.87
2023-03-13T04:57:46.845Z,992.90
2023-03-13T04:58:47.098Z,992.88
2023-03-13T04:59:46.787Z,992.94
2023-03-13T05:00:46.772Z,992.93
2023-03-13T05:01:46.811Z,992.92
2023-03-13T05:02:46.706Z,992.82
2023-03-13T05:03:46.677Z,992.75
2023-03-13T05:04:46.707Z,992.75
2023-03-13T05:05:46.621Z,992.73
2023-03-13T05:06:46.601Z,992.69
2023-03-13T05:07:46.576Z,992.82
2023-03-13T05:08:46.566Z,992.77
2023-03-13T05:09:46.524Z,992.79
2023-03-13T05:10:46.505Z,992.81
2023-03-13T05:11:46.474Z,992.71
2023-03-13T05:12:46.453Z,992.80
2023-03-13T05:13:46.427Z,992.84
2023-03-13T05:14:46.406Z,992.79
2023-03-13T05:15:46.508Z,992.70
2023-03-13T05:16:46.375Z,992.66
2023-03-13T05:17:46.323Z,992.70
2023-03-13T05:18:46.296Z,992.65
2023-03-13T05:19:46.271Z,992.63
2023-03-13T05:20:46.274Z,992.48
2023-03-13T05:21:46.217Z,992.62
2023-03-13T05:22:46.200Z,992.60
2023-03-13T05:23:46.179Z,992.63
2023-03-13T05:24:46.149Z,992.59
2023-03-13T05:25:46.121Z,992.58
2023-03-13T05:26:46.099Z,992.55
2023-03-13T05:27:46.071Z,992.60
2023-03-13T05:28:46.047Z,992.49
2023-03-13T05:29:46.023Z,992.54
2023-03-13T05:30:46.034Z,992.64
2023-03-13T05:31:45.969Z,992.44
2023-03-13T05:32:46.090Z,992.49
2023-03-13T05:33:45.921Z,992.47
2023-03-13T05:34:45.894Z,992.43
2023-03-13T05:35:45.922Z,992.42
2023-03-13T05:36:45.866Z,992.37
2023-03-13T05:37:45.816Z,992.37
2023-03-13T05:38:45.803Z,992.35
2023-03-13T05:39:45.766Z,992.34
2023-03-13T05:40:45.747Z,992.37
2023-03-13T05:41:45.713Z,992.37
2023-03-13T05:42:45.691Z,992.40
2023-03-13T05:43:45.659Z,992.42
2023-03-13T05:44:45.643Z,992.38
2023-03-13T05:45:45.612Z,992.38
2023-03-13T05:46:45.722Z,992.39
2023-03-13T05:47:45.563Z,992.37
2023-03-13T05:48:45.568Z,992.36
2023-03-13T05:49:45.512Z,992.36
2023-03-13T05:50:45.488Z,992.31
2023-03-13T05:51:45.458Z,992.36
2023-03-13T05:52:45.440Z,992.43
2023-03-13T05:53:45.415Z,992.36
2023-03-13T05:54:45.390Z,992.35
2023-03-13T05:55:45.359Z,992.39
2023-03-13T05:56:45.338Z,992.44
2023-03-13T05:57:45.306Z,992.46
2023-03-13T05:58:45.285Z,992.37
2023-03-13T05:59:45.252Z,992.47
2023-03-13T06:00:45.229Z,992.44
2023-03-13T06:01:45.210Z,992.44
2023-03-13T06:02:45.180Z,992.33
2023-03-13T06:03:45.378Z,992.40
2023-03-13T06:04:45.321Z,992.42
2023-03-13T06:05:45.104Z,992.42
2023-03-13T06:06:45.080Z,992.36
2023-03-13T06:07:45.051Z,992.37
2023-03-13T06:08:45.029Z,992.35
2023-03-13T06:09:45.002Z,992.41
2023-03-13T06:10:44.979Z,992.36
2023-03-13T06:11:44.954Z,992.38
2023-03-13T06:12:44.931Z,992.33
2023-03-13T06:13:44.907Z,992.35
2023-03-13T06:14:44.876Z,992.31
2023-03-13T06:15:44.898Z,992.23
2023-03-13T06:16:44.824Z,992.34
2023-03-13T06:17:44.795Z,992.29
2023-03-13T06:18:44.777Z,992.26
2023-03-13T06:19:44.753Z,992.22
2023-03-13T06:20:44.751Z,992.25
2023-03-13T06:21:44.703Z,992.27
2023-03-13T06:22:44.690Z,992.25
2023-03-13T06:23:44.646Z,992.24
2023-03-13T06:24:44.632Z,992.26
2023-03-13T06:25:44.595Z,992.22
2023-03-13T06:26:44.571Z,992.23
2023-03-13T06:27:44.548Z,992.29
2023-03-13T06:28:44.561Z,992.15
2023-03-13T06:29:44.531Z,992.14
2023-03-13T06:30:44.488Z,992.18
2023-03-13T06:31:44.543Z,992.19
2023-03-13T06:32:44.569Z,992.21
2023-03-13T06:33:44.397Z,992.27
2023-03-13T06:34:44.373Z,992.22
2023-03-13T06:35:55.573Z,992.25
2023-03-13T06:36:44.347Z,992.23
2023-03-13T06:37:44.299Z,992.32
2023-03-13T06:38:44.284Z,992.30
2023-03-13T06:39:44.249Z,992.31
2023-03-13T06:40:45.843Z,992.27
2023-03-13T06:41:44.214Z,992.25
2023-03-13T06:42:44.180Z,992.27
2023-03-13T06:43:44.158Z,992.28
2023-03-13T06:44:44.141Z,992.27
2023-03-13T06:45:44.101Z,992.33
2023-03-13T06:46:44.107Z,992.29
2023-03-13T06:47:44.061Z,992.24
2023-03-13T06:48:44.032Z,992.28
2023-03-13T06:49:44.002Z,992.32
2023-03-13T06:50:43.987Z,992.24
2023-03-13T06:51:43.952Z,992.20
2023-03-13T06:52:44.483Z,992.17
2023-03-13T06:53:43.916Z,992.24
2023-03-13T06:54:43.883Z,992.21
2023-03-13T06:55:43.858Z,992.21
2023-03-13T06:56:43.827Z,992.25
2023-03-13T06:57:43.804Z,992.27
2023-03-13T06:58:43.779Z,992.29
2023-03-13T06:59:43.756Z,992.25
2023-03-13T07:00:43.777Z,992.26
2023-03-13T07:01:43.712Z,992.28
2023-03-13T07:02:43.687Z,992.19
2023-03-13T07:03:43.718Z,992.25
2023-03-13T07:04:45.175Z,992.18
2023-03-13T07:05:43.612Z,992.24
2023-03-13T07:06:43.597Z,992.26
2023-03-13T07:07:43.567Z,992.23
2023-03-13T07:08:43.566Z,992.26
2023-03-13T07:09:43.522Z,992.21
2023-03-13T07:10:43.497Z,992.22
2023-03-13T07:11:43.457Z,992.23
2023-03-13T07:12:43.451Z,992.23
2023-03-13T07:13:43.414Z,992.19
2023-03-13T07:14:43.387Z,992.25
2023-03-13T07:15:43.368Z,992.18
2023-03-13T07:16:43.503Z,992.19
2023-03-13T07:17:43.439Z,992.14
2023-03-13T07:18:43.295Z,992.18
2023-03-13T07:19:43.270Z,992.13
2023-03-13T07:20:43.316Z,992.24
2023-03-13T07:21:43.228Z,992.22
2023-03-13T07:22:43.205Z,992.22
2023-03-13T07:23:43.170Z,992.22
2023-03-13T07:24:43.240Z,992.14
2023-03-13T07:25:43.131Z,992.11
2023-03-13T07:26:57.739Z,992.09
2023-03-13T07:27:43.074Z,992.07
2023-03-13T07:28:43.055Z,992.16
2023-03-13T07:29:43.018Z,992.14
2023-03-13T07:30:43.002Z,992.07
2023-03-13T07:31:43.032Z,992.11
2023-03-13T07:32:43.032Z,992.12
2023-03-13T07:33:42.920Z,992.12
2023-03-13T07:34:42.899Z,992.11
2023-03-13T07:35:42.874Z,992.01
2023-03-13T07:36:42.849Z,991.95
2023-03-13T07:37:42.835Z,991.90
2023-03-13T07:38:42.802Z,991.94
2023-03-13T07:39:42.779Z,991.83
2023-03-13T07:40:42.773Z,991.87
2023-03-13T07:41:42.721Z,991.77
2023-03-13T07:42:42.705Z,991.89
2023-03-13T07:43:42.704Z,991.76
2023-03-13T07:44:42.697Z,991.76
2023-03-13T07:45:42.721Z,991.72
2023-03-13T07:46:42.611Z,991.81
2023-03-13T07:47:42.592Z,991.74
2023-03-13T07:48:42.572Z,991.82
2023-03-13T07:49:42.527Z,991.75
2023-03-13T07:50:42.567Z,991.75
2023-03-13T07:51:44.379Z,991.74
2023-03-13T07:52:42.473Z,991.75
2023-03-13T07:53:42.428Z,991.75
2023-03-13T07:54:42.410Z,991.71
2023-03-13T07:55:42.385Z,991.84
2023-03-13T07:56:42.383Z,991.81
2023-03-13T07:57:42.336Z,991.79
2023-03-13T07:58:42.316Z,991.74
2023-03-13T07:59:42.285Z,991.79
2023-03-13T08:00:42.265Z,991.69
2023-03-13T08:01:42.255Z,991.78
2023-03-13T08:02:42.342Z,991.75
2023-03-13T08:03:42.243Z,991.71
2023-03-13T08:04:42.170Z,991.75
2023-03-13T08:05:42.140Z,991.75
2023-03-13T08:06:42.126Z,991.68
2023-03-13T08:07:42.087Z,991.65
2023-03-13T08:08:42.075Z,991.69
2023-03-13T08:09:42.045Z,991.67
2023-03-13T08:10:42.028Z,991.71
2023-03-13T08:11:41.992Z,991.57
2023-03-13T08:12:41.993Z,991.77
2023-03-13T08:13:41.948Z,991.56
2023-03-13T08:14:41.933Z,991.67
2023-03-13T08:15:41.911Z,991.69
2023-03-13T08:16:41.939Z,991.71
2023-03-13T08:17:41.851Z,991.68
2023-03-13T08:18:41.827Z,991.68
2023-03-13T08:19:41.791Z,991.66
2023-03-13T08:20:42.908Z,991.67
2023-03-13T08:21:41.766Z,991.73
2023-03-13T08:22:41.729Z,991.73
2023-03-13T08:23:41.708Z,991.77
2023-03-13T08:24:41.680Z,991.73
2023-03-13T08:25:41.649Z,991.69
2023-03-13T08:26:41.653Z,991.63
2023-03-13T08:27:41.607Z,991.70
2023-03-13T08:28:41.594Z,991.65
2023-03-13T08:29:41.552Z,991.71
2023-03-13T08:30:41.569Z,991.71
2023-03-13T08:31:41.499Z,991.72
2023-03-13T08:32:41.548Z,991.76
2023-03-13T08:33:41.454Z,991.68
2023-03-13T08:34:41.546Z,991.72
2023-03-13T08:35:41.483Z,991.64
2023-03-13T08:36:41.391Z,991.60
2023-03-13T08:37:41.364Z,991.62
2023-03-13T08:38:41.350Z,991.66
2023-03-13T08:39:41.313Z,991.71
2023-03-13T08:40:41.286Z,991.74
2023-03-13T08:41:41.265Z,991.77
2023-03-13T08:42:41.244Z,991.67
2023-03-13T08:43:41.216Z,991.72
2023-03-13T08:44:41.214Z,991.76
2023-03-13T08:45:41.171Z,991.71
2023-03-13T08:46:41.278Z,991.80
2023-03-13T08:47:41.118Z,991.77
2023-03-13T08:48:41.099Z,991.76
2023-03-13T08:49:41.079Z,991.87
2023-03-13T08:50:41.046Z,991.77
2023-03-13T08:51:41.025Z,991.85
2023-03-13T08:52:41.004Z,991.82
2023-03-13T08:53:40.994Z,991.78
2023-03-13T08:54:40.955Z,991.80
2023-03-13T08:55:40.933Z,991.79
2023-03-13T08:56:40.931Z,991.76
2023-03-13T08:57:40.878Z,991.76
2023-03-13T08:58:40.859Z,991.81
2023-03-13T08:59:40.838Z,991.78
2023-03-13T09:00:40.834Z,991.81
2023-03-13T09:01:40.783Z,991.78
2023-03-13T09:02:40.823Z,991.74
2023-03-13T09:03:40.830Z,991.78
2023-03-13T09:04:40.717Z,991.81
2023-03-13T09:05:54.832Z,991.78
2023-03-13T09:06:40.665Z,991.70
2023-03-13T09:07:40.640Z,991.72
2023-03-13T09:08:40.625Z,991.73
2023-03-13T09:09:40.597Z,991.80
2023-03-13T09:10:40.577Z,991.79
2023-03-13T09:11:40.553Z,991.70
2023-03-13T09:12:40.526Z,991.58
2023-03-13T09:13:40.502Z,991.81
2023-03-13T09:14:40.495Z,991.75
2023-03-13T09:15:40.504Z,991.81
2023-03-13T09:16:40.473Z,991.73
2023-03-13T09:17:40.444Z,991.72
2023-03-13T09:18:40.381Z,991.70
2023-03-13T09:19:54.124Z,991.78
2023-03-13T09:20:40.333Z,991.72
2023-03-13T09:21:40.317Z,991.81
2023-03-13T09:22:40.286Z,991.67
2023-03-13T09:23:40.277Z,991.59
2023-03-13T09:24:40.236Z,991.57
2023-03-13T09:25:40.212Z,991.69
2023-03-13T09:26:46.516Z,991.65
2023-03-13T09:27:40.169Z,991.56
2023-03-13T09:28:40.135Z,991.58
2023-03-13T09:29:40.115Z,991.54
2023-03-13T09:30:40.094Z,991.63
2023-03-13T09:31:40.101Z,991.62
2023-03-13T09:32:40.102Z,991.49
2023-03-13T09:33:40.030Z,991.45
2023-03-13T09:34:39.998Z,991.46
2023-03-13T09:35:40.017Z,991.52
2023-03-13T09:36:39.956Z,991.39
2023-03-13T09:37:39.941Z,991.32
2023-03-13T09:38:39.905Z,991.45
2023-03-13T09:39:39.894Z,991.35
2023-03-13T09:40:39.855Z,991.44
2023-03-13T09:41:39.836Z,991.39
2023-03-13T09:42:39.814Z,991.39
2023-03-13T09:43:39.786Z,991.39
2023-03-13T09:44:39.752Z,991.36
2023-03-13T09:45:39.742Z,991.36
2023-03-13T09:46:39.770Z,991.47
2023-03-13T09:47:39.702Z,991.24
2023-03-13T09:48:39.743Z,991.29
2023-03-13T09:49:39.657Z,991.24
2023-03-13T09:50:39.613Z,991.30
2023-03-13T09:51:39.596Z,991.26
2023-03-13T09:52:39.570Z,991.11
2023-03-13T09:53:39.558Z,991.17
2023-03-13T09:54:39.528Z,991.18
2023-03-13T09:55:39.502Z,991.16
2023-03-13T09:56:39.477Z,991.15
2023-03-13T09:57:39.449Z,991.19
2023-03-13T09:58:39.427Z,991.16
2023-03-13T09:59:39.407Z,991.06
2023-03-13T10:00:39.389Z,991.12
2023-03-13T10:01:39.437Z,991.01
2023-03-13T10:02:39.337Z,991.11
2023-03-13T10:03:39.319Z,991.04
2023-03-13T10:04:41.718Z,991.14
2023-03-13T10:05:39.262Z,991.25
2023-03-13T10:06:39.238Z,991.21
2023-03-13T10:07:39.224Z,991.16
2023-03-13T10:08:39.191Z,991.17
2023-03-13T10:09:39.175Z,991.17
2023-03-13T10:10:39.154Z,991.08
2023-03-13T10:11:39.124Z,991.18
2023-03-13T10:12:39.104Z,991.18
2023-03-13T10:13:39.095Z,991.27
2023-03-13T10:14:39.060Z,991.22
2023-03-13T10:15:39.052Z,991.05
2023-03-13T10:16:39.082Z,991.08
2023-03-13T10:17:38.990Z,991.19
2023-03-13T10:18:38.960Z,991.12
2023-03-13T10:19:38.937Z,991.13
2023-03-13T10:20:38.938Z,991.12
2023-03-13T10:21:38.892Z,991.22
2023-03-13T10:22:38.864Z,991.18
2023-03-13T10:23:38.858Z,990.95
2023-03-13T10:24:38.831Z,991.07
2023-03-13T10:25:38.796Z,990.90
2023-03-13T10:26:38.773Z,991.17
2023-03-13T10:27:38.750Z,991.02
2023-03-13T10:28:38.730Z,991.04
2023-03-13T10:29:38.753Z,991.11
2023-03-13T10:30:38.691Z,991.06
2023-03-13T10:31:38.759Z,991.03
2023-03-13T10:32:38.660Z,990.93
2023-03-13T10:33:38.611Z,990.92
2023-03-13T10:34:38.591Z,990.96
2023-03-13T10:35:38.632Z,990.90
2023-03-13T10:36:38.566Z,990.92
2023-03-13T10:37:38.520Z,990.92
2023-03-13T10:38:38.499Z,990.98
2023-03-13T10:39:38.482Z,990.83
2023-03-13T10:40:38.454Z,990.93
2023-03-13T10:41:38.434Z,990.89
2023-03-13T10:42:38.406Z,990.78
2023-03-13T10:43:38.391Z,990.81
2023-03-13T10:44:38.363Z,990.82
2023-03-13T10:45:38.341Z,990.80
2023-03-13T10:46:38.351Z,990.69
2023-03-13T10:47:38.299Z,990.75
2023-03-13T10:48:38.270Z,990.83
2023-03-13T10:49:38.249Z,990.68
2023-03-13T10:50:38.225Z,990.65
2023-03-13T10:51:38.207Z,990.79
2023-03-13T10:52:38.200Z,990.69
2023-03-13T10:53:38.166Z,990.72
2023-03-13T10:54:38.134Z,990.61
2023-03-13T10:55:38.113Z,990.72
2023-03-13T10:56:38.089Z,990.52
2023-03-13T10:57:38.069Z,990.62
2023-03-13T10:58:38.045Z,990.62
2023-03-13T10:59:38.026Z,990.66
2023-03-13T11:00:38.003Z,990.55
2023-03-13T11:01:37.977Z,990.58
2023-03-13T11:02:38.177Z,990.66
2023-03-13T11:03:38.048Z,990.50
2023-03-13T11:04:37.908Z,990.49
2023-03-13T11:05:37.893Z,990.56
2023-03-13T11:06:37.861Z,990.55
2023-03-13T11:07:37.846Z,990.50
2023-03-13T11:08:37.897Z,990.48
2023-03-13T11:09:37.799Z,990.56
2023-03-13T11:10:37.771Z,990.52
2023-03-13T11:11:37.751Z,990.53
2023-03-13T11:12:37.726Z,990.55
2023-03-13T11:13:38.353Z,990.52
2023-03-13T11:14:37.697Z,990.65
2023-03-13T11:15:37.668Z,990.58
2023-03-13T11:16:37.730Z,990.48
2023-03-13T11:17:37.638Z,990.49
2023-03-13T11:18:37.598Z,990.43
2023-03-13T11:19:37.578Z,990.48
2023-03-13T11:20:37.587Z,990.39
2023-03-13T11:21:37.535Z,990.42
2023-03-13T11:22:37.518Z,990.54
2023-03-13T11:23:37.485Z,990.42
2023-03-13T11:24:37.487Z,990.35
2023-03-13T11:25:37.440Z,990.35
2023-03-13T11:26:37.426Z,990.33
2023-03-13T11:27:37.496Z,990.33
2023-03-13T11:28:37.367Z,990.18
2023-03-13T11:29:37.385Z,990.19
2023-03-13T11:30:37.324Z,990.29
2023-03-13T11:31:37.320Z,990.24
2023-03-13T11:32:37.397Z,990.23
2023-03-13T11:33:37.264Z,990.32
2023-03-13T11:34:37.233Z,990.20
2023-03-13T11:35:37.252Z,990.23
2023-03-13T11:36:37.195Z,990.31
2023-03-13T11:37:37.186Z,990.24
2023-03-13T11:38:37.199Z,990.14
2023-03-13T11:39:37.173Z,990.23
2023-03-13T11:40:37.146Z,990.24
2023-03-13T11:41:37.238Z,990.15
2023-03-13T11:42:37.055Z,990.15
2023-03-13T11:43:37.031Z,990.11
2023-03-13T11:44:37.011Z,990.17
2023-03-13T11:45:37.005Z,990.13
2023-03-13T11:46:37.278Z,989.91
2023-03-13T11:47:36.966Z,990.14
2023-03-13T11:48:36.925Z,990.15
2023-03-13T11:49:39.590Z,990.06
2023-03-13T11:50:36.875Z,990.05
2023-03-13T11:51:36.923Z,990.09
2023-03-13T11:52:36.827Z,990.03
2023-03-13T11:53:36.817Z,990.06
2023-03-13T11:54:36.784Z,990.02
2023-03-13T11:55:36.778Z,989.91
2023-03-13T11:56:36.762Z,989.75
2023-03-13T11:57:36.725Z,990.01
2023-03-13T11:58:36.706Z,989.96
2023-03-13T11:59:36.694Z,989.88
2023-03-13T12:00:36.763Z,989.93
2023-03-13T12:01:36.633Z,989.87
2023-03-13T12:02:36.747Z,989.84
2023-03-13T12:03:36.737Z,989.85
2023-03-13T12:04:36.586Z,989.83
2023-03-13T12:05:36.615Z,989.77
2023-03-13T12:06:36.522Z,989.76
2023-03-13T12:07:36.511Z,989.78
2023-03-13T12:08:36.482Z,989.84
2023-03-13T12:09:36.455Z,989.78
2023-03-13T12:10:36.433Z,989.84
2023-03-13T12:11:36.411Z,989.73
2023-03-13T12:12:36.414Z,989.85
2023-03-13T12:13:36.371Z,989.69
2023-03-13T12:14:36.355Z,989.64
2023-03-13T12:15:36.335Z,989.64
2023-03-13T12:16:36.338Z,989.62
2023-03-13T12:17:36.329Z,989.57
2023-03-13T12:18:36.257Z,989.56
2023-03-13T12:19:36.230Z,989.57
2023-03-13T12:20:36.229Z,989.59
2023-03-13T12:21:36.223Z,989.66
2023-03-13T12:22:36.161Z,989.58
2023-03-13T12:23:36.170Z,989.64
2023-03-13T12:24:36.124Z,989.71
2023-03-13T12:25:38.769Z,989.65
2023-03-13T12:26:36.073Z,989.68
2023-03-13T12:27:36.056Z,989.56
2023-03-13T12:28:36.156Z,989.58